Time;durP1;ratioP1;P1;durP2;ratioP2;P2;SDS_P1;SDS_P2;PMS_P1;PMS_P2;Temp;Humidity;BMP_temperature;BMP_pressure;BME280_temperature;BME280_humidity;BME280_pressure;Samples;Min_cycle;Max_cycle;Signal;HPM_P1;HPM_P2
2022/05/20 00:01:33;;;;;;;2.10;1.23;;;18.00;86.70;;;;;;4997638;28;20447;-42
2022/05/20 00:04:04;;;;;;;1.50;1.40;;;17.90;87.20;;;;;;4997590;28;20484;-45
2022/05/20 00:06:31;;;;;;;1.60;1.50;;;17.90;87.50;;;;;;4997943;28;20436;-45
2022/05/20 00:08:59;;;;;;;1.90;1.40;;;17.70;87.90;;;;;;4997424;28;20414;-45
2022/05/20 00:11:26;;;;;;;1.70;1.60;;;17.60;88.60;;;;;;4997604;28;20437;-44
2022/05/20 00:13:53;;;;;;;3.10;1.53;;;17.60;88.60;;;;;;4998110;28;20442;-46
2022/05/20 00:16:21;;;;;;;4.40;1.30;;;17.60;88.50;;;;;;4997669;28;20443;-45
2022/05/20 00:18:48;;;;;;;1.77;1.50;;;17.60;88.90;;;;;;4998366;28;20477;-47
2022/05/20 00:21:15;;;;;;;1.43;1.30;;;17.70;89.30;;;;;;4997087;28;20462;-44
2022/05/20 00:23:42;;;;;;;7.60;1.70;;;17.80;88.90;;;;;;4997633;28;20874;-41
2022/05/20 00:26:13;;;;;;;1.50;1.40;;;17.90;89.10;;;;;;4997607;28;20446;-44
2022/05/20 00:28:40;;;;;;;1.47;1.37;;;17.80;88.70;;;;;;4997252;28;20445;-42
2022/05/20 00:31:10;;;;;;;2.23;1.40;;;17.70;89.70;;;;;;4997724;28;20437;-43
2022/05/20 00:33:38;;;;;;;1.63;1.40;;;17.70;90.00;;;;;;4996970;28;20553;-43
2022/05/20 00:36:06;;;;;;;4.60;1.80;;;17.60;90.00;;;;;;4997448;28;20442;-42
2022/05/20 00:38:34;;;;;;;1.27;1.23;;;17.60;90.30;;;;;;4997068;28;20418;-44
2022/05/20 00:41:03;;;;;;;1.53;1.43;;;17.50;90.50;;;;;;4997497;28;20458;-43
2022/05/20 00:43:33;;;;;;;1.30;1.20;;;17.50;90.60;;;;;;4996986;28;20445;-43
2022/05/20 00:46:06;;;;;;;2.17;1.70;;;17.40;90.80;;;;;;4997417;28;20413;-44
2022/05/20 00:48:35;;;;;;;1.00;1.00;;;17.50;90.80;;;;;;4997205;28;20418;-46
2022/05/20 00:51:21;;;;;;;2.27;1.80;;;17.40;90.90;;;;;;4997306;28;20460;-46
2022/05/20 00:54:01;;;;;;;1.73;1.57;;;17.30;91.30;;;;;;4996029;28;20425;-43
2022/05/20 00:56:36;;;;;;;9.63;2.20;;;17.40;91.30;;;;;;4980320;28;20427;-43
2022/05/20 00:59:07;;;;;;;1.57;1.43;;;17.50;91.50;;;;;;4997165;28;20535;-44
2022/05/20 01:01:38;;;;;;;1.27;1.17;;;17.40;91.50;;;;;;4996182;28;20503;-43
2022/05/20 01:04:06;;;;;;;1.60;1.30;;;17.40;91.30;;;;;;4996869;28;20505;-42
2022/05/20 01:06:34;;;;;;;1.77;1.67;;;17.50;91.50;;;;;;4996411;28;20416;-46
2022/05/20 01:09:01;;;;;;;1.23;1.17;;;17.50;91.60;;;;;;4996936;28;20425;-48
2022/05/20 01:11:29;;;;;;;1.57;1.40;;;17.40;92.20;;;;;;4996165;28;20445;-45
2022/05/20 01:13:56;;;;;;;1.87;1.40;;;17.40;92.30;;;;;;4996524;28;20454;-46
2022/05/20 01:16:23;;;;;;;1.60;1.50;;;17.30;92.30;;;;;;4996614;28;20506;-46
2022/05/20 01:18:56;;;;;;;2.20;1.30;;;17.30;92.50;;;;;;4996734;28;20448;-41
2022/05/20 01:21:23;;;;;;;2.43;2.23;;;17.30;92.70;;;;;;4997026;28;20507;-46
2022/05/20 01:23:51;;;;;;;3.33;1.47;;;17.20;93.50;;;;;;4995838;28;20456;-44
2022/05/20 01:26:22;;;;;;;4.40;1.83;;;17.20;93.70;;;;;;4996806;28;20771;-45
2022/05/20 01:28:49;;;;;;;3.00;1.80;;;17.20;93.70;;;;;;4996098;28;20517;-46
2022/05/20 01:31:17;;;;;;;1.97;1.53;;;17.20;93.90;;;;;;4996463;28;20433;-44
2022/05/20 01:33:49;;;;;;;1.30;1.17;;;17.10;93.80;;;;;;4994930;28;20495;-44
2022/05/20 01:36:23;;;;;;;1.83;1.53;;;17.20;94.00;;;;;;4996507;28;20469;-45
2022/05/20 01:38:52;;;;;;;3.40;1.63;;;17.20;94.40;;;;;;4995693;28;20449;-42
2022/05/20 01:41:29;;;;;;;2.17;1.97;;;17.30;94.90;;;;;;4997248;28;20436;-42
2022/05/20 01:44:08;;;;;;;3.57;1.70;;;17.30;94.90;;;;;;4996298;28;20830;-44
2022/05/20 01:47:00;;;;;;;2.50;2.30;;;17.30;95.20;;;;;;4996409;28;20416;-43
2022/05/20 01:49:42;;;;;;;3.03;2.13;;;17.30;95.40;;;;;;4996350;28;20411;-45
2022/05/20 01:52:34;;;;;;;3.93;1.90;;;17.20;95.90;;;;;;4995793;28;20433;-45
2022/05/20 01:55:04;;;;;;;5.33;1.70;;;17.20;96.40;;;;;;4996452;28;20681;-41
2022/05/20 01:57:55;;;;;;;1.47;1.37;;;17.10;96.20;;;;;;4995994;28;20450;-42
2022/05/20 02:00:32;;;;;;;2.40;2.00;;;17.20;96.70;;;;;;4996028;28;20416;-43
2022/05/20 02:03:23;;;;;;;4.33;1.93;;;17.00;97.40;;;;;;4995031;28;20420;-43
2022/05/20 02:05:59;;;;;;;4.30;2.37;;;17.00;97.50;;;;;;4995543;28;20467;-45
2022/05/20 02:08:35;;;;;;;1.83;1.73;;;17.20;97.40;;;;;;4995147;28;20440;-45
2022/05/20 02:11:34;;;;;;;7.07;1.67;;;17.40;97.60;;;;;;4995880;28;20827;-44
2022/05/20 02:14:25;;;;;;;2.00;1.40;;;17.40;97.40;;;;;;4984661;28;20450;-45
2022/05/20 02:17:01;;;;;;;2.17;1.60;;;17.50;97.20;;;;;;4990898;28;20412;-46
2022/05/20 02:19:47;;;;;;;2.43;2.23;;;17.60;96.70;;;;;;4995588;28;20448;-45
2022/05/20 02:22:19;;;;;;;3.47;1.80;;;17.50;96.70;;;;;;4995880;28;20630;-46
2022/05/20 02:24:47;;;;;;;2.40;2.00;;;17.60;96.60;;;;;;4995458;28;20535;-45
2022/05/20 02:27:20;;;;;;;1.50;1.40;;;17.70;96.60;;;;;;4995967;28;20428;-44
2022/05/20 02:30:08;;;;;;;1.50;1.40;;;17.70;96.60;;;;;;4995322;28;20421;-44
2022/05/20 02:32:54;;;;;;;1.43;1.33;;;17.90;96.30;;;;;;4995678;28;20492;-44
2022/05/20 02:35:23;;;;;;;2.70;1.47;;;18.10;96.20;;;;;;4995266;28;20477;-45
2022/05/20 02:38:22;;;;;;;3.63;2.17;;;18.10;96.00;;;;;;4995443;28;20448;-46
2022/05/20 02:40:53;;;;;;;1.50;1.40;;;18.20;96.30;;;;;;4994838;28;20442;-45
2022/05/20 02:43:21;;;;;;;2.77;2.10;;;18.30;95.90;;;;;;4996173;28;20445;-47
2022/05/20 02:45:50;;;;;;;1.30;1.20;;;18.20;96.30;;;;;;4998160;28;20820;-43
2022/05/20 02:48:20;;;;;;;1.60;1.17;;;18.40;96.30;;;;;;4999545;28;20644;-44
2022/05/20 02:50:49;;;;;;;1.70;1.57;;;18.20;96.60;;;;;;4999211;28;20505;-43
2022/05/20 02:53:20;;;;;;;2.37;1.60;;;18.20;96.60;;;;;;4999125;28;20435;-48
2022/05/20 02:55:48;;;;;;;2.10;1.83;;;18.20;96.90;;;;;;4998615;28;20787;-45
2022/05/20 03:04:10;;;;;;;9.17;1.73;;;17.90;98.10;;;;;;4979236;28;20948;-43
2022/05/20 03:06:46;;;;;;;1.40;1.30;;;17.80;98.50;;;;;;4979854;28;20657;-44
2022/05/20 03:09:16;;;;;;;1.60;1.50;;;17.70;98.80;;;;;;4979442;28;20414;-46
2022/05/20 03:11:44;;;;;;;1.33;1.23;;;17.90;99.00;;;;;;4979345;28;20524;-44
2022/05/20 03:14:14;;;;;;;2.70;1.80;;;18.00;98.80;;;;;;4980302;28;20421;-44
2022/05/20 03:16:41;;;;;;;4.57;2.20;;;18.10;98.80;;;;;;4980554;28;20419;-43
2022/05/20 03:19:10;;;;;;;3.93;2.10;;;18.20;98.60;;;;;;4979730;28;20798;-45
2022/05/20 03:21:42;;;;;;;6.67;2.57;;;18.40;98.50;;;;;;4979469;28;20490;-45
2022/05/20 03:24:10;;;;;;;2.40;1.30;;;18.50;98.40;;;;;;4998619;28;20479;-43
2022/05/20 03:26:38;;;;;;;2.30;1.73;;;18.70;98.30;;;;;;4998946;28;20790;-49
2022/05/20 03:29:06;;;;;;;4.40;2.00;;;18.90;98.10;;;;;;4999025;28;20446;-45
2022/05/20 03:31:35;;;;;;;2.80;1.80;;;18.90;97.90;;;;;;4998712;28;20444;-43
2022/05/20 03:34:05;;;;;;;5.87;2.80;;;18.90;98.10;;;;;;4998281;28;20481;-45
2022/05/20 03:36:43;;;;;;;3.40;2.00;;;18.80;98.40;;;;;;4998877;28;20471;-43
2022/05/20 03:39:13;;;;;;;1.93;1.73;;;19.00;98.20;;;;;;4998363;28;20777;-45
2022/05/20 03:41:41;;;;;;;3.50;1.73;;;19.30;98.00;;;;;;4998165;28;20459;-48
2022/05/20 03:44:11;;;;;;;4.20;1.70;;;19.40;98.20;;;;;;4998996;28;20634;-43
2022/05/20 03:46:40;;;;;;;2.60;2.00;;;19.40;98.00;;;;;;5000220;28;20442;-43
2022/05/20 03:49:08;;;;;;;4.10;2.57;;;19.40;98.10;;;;;;4999376;28;20410;-43
2022/05/20 03:51:38;;;;;;;3.97;2.10;;;19.40;98.20;;;;;;4999582;28;20707;-43
2022/05/20 03:54:06;;;;;;;2.80;1.90;;;19.40;98.20;;;;;;4998587;28;20478;-46
2022/05/20 03:56:33;;;;;;;4.33;2.03;;;19.30;98.40;;;;;;4996958;28;20424;-43
2022/05/20 03:59:01;;;;;;;2.57;1.77;;;19.40;98.60;;;;;;4998266;28;20477;-43
2022/05/20 04:04:17;;;;;;;2.73;1.40;;;19.50;98.70;;;;;;4987705;28;20436;-45
2022/05/20 04:06:45;;;;;;;3.10;1.97;;;19.40;98.80;;;;;;4977691;28;20493;-43
2022/05/20 04:09:12;;;;;;;1.90;1.80;;;19.40;98.80;;;;;;4978451;28;20447;-42
2022/05/20 04:11:40;;;;;;;2.80;2.60;;;19.40;99.00;;;;;;4973854;28;20445;-46
2022/05/20 04:14:08;;;;;;;3.00;1.60;;;19.50;99.00;;;;;;4988863;28;20475;-47
2022/05/20 04:16:35;;;;;;;11.60;2.80;;;19.60;98.70;;;;;;4988778;28;20790;-43
2022/05/20 04:19:03;;;;;;;2.37;1.50;;;19.70;98.60;;;;;;4989676;28;20449;-44
2022/05/20 04:21:30;;;;;;;7.30;1.83;;;19.90;99.00;;;;;;4978089;28;20678;-43
2022/05/20 04:24:06;;;;;;;3.53;1.97;;;19.80;99.10;;;;;;4978891;28;20442;-43
2022/05/20 04:26:39;;;;;;;10.57;2.20;;;19.60;99.40;;;;;;4978752;28;20415;-44
2022/05/20 04:29:06;;;;;;;2.40;2.20;;;19.70;99.00;;;;;;4985230;28;20437;-44
2022/05/20 04:31:34;;;;;;;1.57;1.40;;;19.80;99.00;;;;;;4985784;28;20667;-45
2022/05/20 04:34:01;;;;;;;1.50;1.17;;;19.70;99.10;;;;;;4982752;28;20693;-46
2022/05/20 04:36:28;;;;;;;1.67;1.57;;;19.60;99.50;;;;;;4981830;28;20414;-44
2022/05/20 04:38:55;;;;;;;1.30;1.20;;;19.60;99.10;;;;;;4989749;28;20444;-45
2022/05/20 04:46:56;;;;;;;3.23;2.43;;;19.90;98.40;;;;;;4977034;28;21121;-44
2022/05/20 04:49:29;;;;;;;3.20;1.90;;;19.90;98.40;;;;;;4982108;28;20421;-43
2022/05/20 04:52:01;;;;;;;2.07;1.87;;;20.20;98.20;;;;;;4986655;28;20469;-43
2022/05/20 04:57:21;;;;;;;6.00;2.33;;;20.40;98.10;;;;;;4994393;28;20441;-45
2022/05/20 04:59:49;;;;;;;2.60;1.70;;;20.60;98.00;;;;;;4982657;28;20474;-40
2022/05/20 05:02:16;;;;;;;5.50;2.00;;;20.60;98.10;;;;;;4978875;28;20478;-43
2022/05/20 05:04:45;;;;;;;3.23;1.80;;;20.80;97.50;;;;;;4992262;28;20514;-44
2022/05/20 05:07:13;;;;;;;1.83;1.33;;;21.10;97.20;;;;;;4995586;28;20440;-44
2022/05/20 05:09:42;;;;;;;6.77;1.80;;;21.10;97.00;;;;;;4995399;28;20771;-46
2022/05/20 05:12:11;;;;;;;3.07;2.10;;;21.30;97.10;;;;;;4995315;28;20699;-44
2022/05/20 05:14:45;;;;;;;4.90;3.10;;;21.20;97.00;;;;;;4995775;28;20415;-46
2022/05/20 05:17:15;;;;;;;4.00;1.30;;;21.20;97.10;;;;;;4975122;28;20483;-43
2022/05/20 05:19:44;;;;;;;5.57;2.33;;;21.20;97.60;;;;;;4991211;28;20481;-42
2022/05/20 05:22:12;;;;;;;4.50;1.80;;;21.30;97.80;;;;;;4981493;28;20435;-44
2022/05/20 05:24:40;;;;;;;5.90;2.63;;;21.30;97.40;;;;;;4995973;28;20467;-45
2022/05/20 05:27:07;;;;;;;3.10;2.77;;;21.20;98.00;;;;;;4996119;28;20422;-46
2022/05/20 05:29:36;;;;;;;3.10;2.60;;;21.20;98.00;;;;;;4991420;28;20543;-46
2022/05/20 05:32:03;;;;;;;4.53;2.20;;;21.40;98.00;;;;;;4976377;28;20461;-44
2022/05/20 05:34:33;;;;;;;2.07;1.60;;;21.30;98.50;;;;;;4975943;28;20452;-44
2022/05/20 05:37:00;;;;;;;4.20;2.97;;;21.20;99.00;;;;;;4976959;28;20422;-43
2022/05/20 05:39:27;;;;;;;5.13;3.20;;;21.20;99.30;;;;;;4959552;28;20508;-45
2022/05/20 05:41:57;;;;;;;17.17;4.17;;;21.10;99.80;;;;;;4975736;28;20520;-46
2022/05/20 05:44:24;;;;;;;10.70;3.80;;;21.20;99.90;;;;;;4915319;28;21001;-42
2022/05/20 05:46:51;;;;;;;15.50;5.23;;;21.40;99.90;;;;;;4970162;28;20537;-44
2022/05/20 05:49:18;;;;;;;2.70;2.20;;;21.50;99.90;;;;;;4976183;28;20520;-45
2022/05/20 05:51:45;;;;;;;4.07;2.37;;;21.70;99.90;;;;;;4975036;28;20814;-42
2022/05/20 05:54:12;;;;;;;6.83;2.70;;;22.00;99.80;;;;;;4975368;28;20433;-47
2022/05/20 05:56:40;;;;;;;7.40;3.47;;;22.20;99.90;;;;;;4975483;28;20468;-44
2022/05/20 05:59:07;;;;;;;5.73;3.17;;;22.20;99.90;;;;;;4975564;28;20443;-44
2022/05/20 06:01:34;;;;;;;2.77;2.33;;;22.30;99.90;;;;;;4975178;28;20534;-44
2022/05/20 06:04:02;;;;;;;4.63;2.47;;;22.60;99.90;;;;;;4975810;28;20511;-45
2022/05/20 06:06:30;;;;;;;6.00;1.93;;;22.80;99.90;;;;;;4975316;28;20547;-49
2022/05/20 06:08:57;;;;;;;8.80;2.47;;;23.10;99.90;;;;;;4975589;28;20509;-45
2022/05/20 06:11:25;;;;;;;2.40;2.20;;;23.20;99.90;;;;;;4976117;28;20483;-44
2022/05/20 06:13:52;;;;;;;2.70;2.47;;;23.40;99.90;;;;;;4982075;28;20443;-44
2022/05/20 06:16:21;;;;;;;2.47;2.27;;;23.90;99.90;;;;;;4995018;28;20574;-45
2022/05/20 06:18:50;;;;;;;10.40;2.73;;;24.60;99.70;;;;;;4988733;28;20423;-44
2022/05/20 06:21:18;;;;;;;6.20;2.70;;;24.90;99.60;;;;;;4975946;28;20468;-47
2022/05/20 06:23:45;;;;;;;18.03;2.90;;;25.10;99.30;;;;;;4993178;28;20538;-44
2022/05/20 06:26:12;;;;;;;3.63;2.50;;;25.50;99.00;;;;;;4995214;28;20506;-47
2022/05/20 06:28:43;;;;;;;4.27;2.30;;;26.10;98.40;;;;;;4994689;28;20434;-44
2022/05/20 06:31:11;;;;;;;10.03;3.07;;;26.50;98.10;;;;;;4993725;28;20464;-44
2022/05/20 06:33:38;;;;;;;5.63;2.90;;;26.70;97.80;;;;;;4994880;28;20908;-43
2022/05/20 06:41:38;;;;;;;3.33;2.20;;;29.40;93.70;;;;;;4975407;28;20555;-46
2022/05/20 06:44:06;;;;;;;8.50;2.30;;;30.20;91.50;;;;;;4975747;28;20531;-43
2022/05/20 06:46:34;;;;;;;16.13;3.23;;;29.90;91.40;;;;;;4975193;28;20571;-48
2022/05/20 06:49:02;;;;;;;6.33;1.93;;;29.50;91.80;;;;;;4975253;28;20440;-45
2022/05/20 06:51:36;;;;;;;2.43;2.23;;;29.70;91.50;;;;;;4974736;28;20512;-47
2022/05/20 06:54:06;;;;;;;6.60;2.70;;;30.70;90.20;;;;;;4975381;28;20545;-44
2022/05/20 06:56:36;;;;;;;5.83;1.93;;;31.60;86.50;;;;;;4975501;28;20514;-44
2022/05/20 06:59:05;;;;;;;11.23;2.77;;;31.40;85.80;;;;;;4989395;28;20450;-46
2022/05/20 07:01:33;;;;;;;4.57;2.37;;;31.00;86.00;;;;;;4982571;28;20558;-46
2022/05/20 07:04:00;;;;;;;2.47;2.00;;;31.10;85.80;;;;;;4976768;28;20463;-44
2022/05/20 07:06:30;;;;;;;4.43;2.20;;;31.80;84.20;;;;;;4976459;28;20515;-45
2022/05/20 07:09:03;;;;;;;5.30;2.50;;;32.60;81.70;;;;;;4975378;28;21019;-47
2022/05/20 07:11:30;;;;;;;5.47;2.73;;;33.40;78.50;;;;;;4975608;28;20535;-45
2022/05/20 07:13:58;;;;;;;2.23;2.03;;;34.10;77.00;;;;;;4975045;28;20944;-45
2022/05/20 07:16:27;;;;;;;4.97;2.17;;;34.70;73.40;;;;;;4978234;28;20458;-46
2022/05/20 07:18:55;;;;;;;3.00;1.87;;;34.60;72.50;;;;;;4987672;28;20620;-46
2022/05/20 07:21:22;;;;;;;3.10;2.63;;;33.90;73.10;;;;;;4974903;28;20499;-44
2022/05/20 07:23:50;;;;;;;5.80;3.10;;;34.50;72.00;;;;;;4993705;28;20443;-47
2022/05/20 07:26:17;;;;;;;3.67;2.73;;;35.30;70.10;;;;;;4995384;28;20581;-45
2022/05/20 07:28:44;;;;;;;5.70;2.43;;;36.20;68.10;;;;;;4994932;28;20443;-46
2022/05/20 07:31:12;;;;;;;2.57;2.20;;;36.20;66.90;;;;;;4978815;28;20464;-44
2022/05/20 07:33:39;;;;;;;2.50;2.30;;;36.30;66.50;;;;;;4979490;28;20440;-46
2022/05/20 07:36:07;;;;;;;5.03;2.23;;;36.50;65.40;;;;;;4987901;28;20451;-45
2022/05/20 07:38:35;;;;;;;3.10;1.93;;;36.20;65.80;;;;;;4985930;28;20448;-48
2022/05/20 07:41:02;;;;;;;2.83;2.60;;;36.80;65.10;;;;;;4978823;28;20482;-45
2022/05/20 07:43:29;;;;;;;6.50;3.10;;;38.10;61.90;;;;;;4979175;28;20444;-47
2022/05/20 07:45:57;;;;;;;5.37;3.10;;;37.80;60.90;;;;;;4978492;28;20952;-45
2022/05/20 07:48:25;;;;;;;7.63;3.03;;;37.70;60.70;;;;;;4977878;28;20436;-44
2022/05/20 07:50:58;;;;;;;4.77;3.40;;;37.30;60.90;;;;;;4993067;28;20494;-44
2022/05/20 07:53:33;;;;;;;5.80;3.47;;;37.30;61.30;;;;;;4978614;28;20731;-42
2022/05/20 07:56:26;;;;;;;3.87;3.57;;;38.30;59.80;;;;;;4978314;28;20510;-44
2022/05/20 07:59:02;;;;;;;5.77;4.00;;;37.80;59.90;;;;;;4975798;28;20449;-44
2022/05/20 08:01:32;;;;;;;5.20;3.57;;;38.50;58.70;;;;;;4978774;28;20498;-48
2022/05/20 08:05:01;;;;;;;4.50;3.30;;;39.00;58.00;;;;;;4978503;28;20436;-49
2022/05/20 08:07:33;;;;;;;4.07;3.00;;;38.80;57.60;;;;;;4956887;28;20839;-45
2022/05/20 08:10:04;;;;;;;3.13;2.83;;;38.30;58.00;;;;;;4978089;28;20428;-46
2022/05/20 08:12:32;;;;;;;11.43;4.20;;;37.50;59.00;;;;;;4978731;28;20780;-45
2022/05/20 08:15:00;;;;;;;4.20;3.80;;;38.20;57.80;;;;;;4977754;28;20460;-46
2022/05/20 08:17:27;;;;;;;5.33;3.70;;;38.30;57.50;;;;;;4988326;28;20458;-48
2022/05/20 08:19:56;;;;;;;4.33;3.93;;;38.60;57.10;;;;;;4981834;28;20791;-45
2022/05/20 08:22:23;;;;;;;6.93;4.63;;;38.20;57.80;;;;;;4983616;28;20455;-46
2022/05/20 08:24:57;;;;;;;4.23;3.03;;;38.50;57.50;;;;;;4997216;28;20451;-45
2022/05/20 08:27:27;;;;;;;2.53;2.33;;;38.80;56.90;;;;;;4996790;28;20483;-44
2022/05/20 08:29:57;;;;;;;2.60;2.40;;;38.10;57.80;;;;;;4997926;28;20699;-44
2022/05/20 08:32:24;;;;;;;2.50;2.20;;;38.00;56.80;;;;;;4999388;28;20513;-49
2022/05/20 08:34:52;;;;;;;2.73;1.63;;;38.50;56.60;;;;;;4999705;28;20443;-48
2022/05/20 08:37:20;;;;;;;4.90;2.50;;;38.60;56.60;;;;;;4998236;28;20443;-44
2022/05/20 08:39:48;;;;;;;4.37;2.53;;;39.30;56.20;;;;;;4996567;28;20783;-47
2022/05/20 08:42:27;;;;;;;3.00;2.73;;;39.40;55.00;;;;;;4997064;28;20459;-46
2022/05/20 08:44:58;;;;;;;3.03;2.73;;;38.40;56.30;;;;;;4996737;28;20855;-45
2022/05/20 08:47:46;;;;;;;2.13;1.80;;;38.10;56.80;;;;;;4997384;28;20483;-46
2022/05/20 08:50:20;;;;;;;2.37;2.17;;;37.50;57.90;;;;;;4997133;28;20435;-46
2022/05/20 08:52:50;;;;;;;6.03;2.67;;;38.00;57.40;;;;;;4996536;28;20459;-45
2022/05/20 08:55:18;;;;;;;4.13;2.83;;;38.30;56.90;;;;;;4996872;28;20745;-42
2022/05/20 08:57:55;;;;;;;2.50;2.13;;;38.40;56.90;;;;;;4996382;28;20710;-48
2022/05/20 09:00:22;;;;;;;4.97;1.87;;;37.10;57.80;;;;;;4985983;28;20467;-45
2022/05/20 09:02:49;;;;;;;2.73;1.60;;;36.30;58.60;;;;;;4976742;28;20440;-48
2022/05/20 09:05:21;;;;;;;7.77;3.60;;;36.50;58.10;;;;;;4977211;28;20738;-47
2022/05/20 09:08:01;;;;;;;8.00;3.13;;;36.70;58.60;;;;;;4976688;28;20627;-45
2022/05/20 09:10:34;;;;;;;6.63;2.50;;;36.80;58.70;;;;;;4977583;28;20464;-49
2022/05/20 09:13:07;;;;;;;4.03;2.20;;;36.60;58.60;;;;;;4976593;28;20703;-44
2022/05/20 09:15:46;;;;;;;3.70;2.50;;;36.10;59.30;;;;;;4989747;28;20462;-48
2022/05/20 09:18:39;;;;;;;3.37;2.40;;;36.20;59.10;;;;;;4978922;28;20482;-43
2022/05/20 09:21:14;;;;;;;4.67;2.50;;;36.10;59.60;;;;;;4976871;28;20459;-44
2022/05/20 09:23:52;;;;;;;3.07;2.53;;;36.90;58.70;;;;;;4993120;28;20441;-45
2022/05/20 09:26:36;;;;;;;1.90;1.80;;;37.00;57.60;;;;;;4996379;28;20479;-48
2022/05/20 09:29:11;;;;;;;4.30;2.60;;;35.90;60.00;;;;;;4996492;28;20482;-45
2022/05/20 09:32:02;;;;;;;13.50;2.73;;;34.70;62.60;;;;;;4995629;28;20462;-46
2022/05/20 09:34:41;;;;;;;5.00;2.37;;;33.40;66.00;;;;;;4996016;28;20447;-47
2022/05/20 09:37:16;;;;;;;4.20;1.83;;;32.10;68.80;;;;;;4996102;28;20514;-46
2022/05/20 09:39:46;;;;;;;4.80;2.03;;;31.50;70.50;;;;;;4995269;28;20443;-49
2022/05/20 09:42:16;;;;;;;3.20;2.27;;;31.10;70.60;;;;;;4995550;28;20916;-46
2022/05/20 09:44:47;;;;;;;2.30;1.73;;;30.80;71.90;;;;;;4995415;28;20432;-48
2022/05/20 09:47:31;;;;;;;2.07;1.97;;;30.50;74.30;;;;;;4977991;28;20505;-45
2022/05/20 09:50:05;;;;;;;5.00;2.50;;;30.30;74.10;;;;;;4995341;28;20442;-43
2022/05/20 09:52:32;;;;;;;2.07;1.70;;;30.20;74.20;;;;;;4995084;28;20459;-44
2022/05/20 09:55:11;;;;;;;4.23;2.30;;;30.10;73.90;;;;;;4994243;28;20451;-46
2022/05/20 09:57:45;;;;;;;1.97;1.87;;;29.80;74.00;;;;;;4995227;28;20866;-45
2022/05/20 10:00:32;;;;;;;2.37;2.17;;;29.50;75.40;;;;;;4995332;28;20767;-47
2022/05/20 10:03:35;;;;;;;4.70;2.27;;;29.40;76.00;;;;;;4993893;28;20442;-45
2022/05/20 10:06:20;;;;;;;2.77;2.10;;;29.30;76.30;;;;;;4970580;28;20494;-44
2022/05/20 10:09:23;;;;;;;7.27;1.83;;;29.50;77.50;;;;;;4994129;28;20813;-47
2022/05/20 10:11:51;;;;;;;2.30;2.10;;;29.80;77.80;;;;;;4986625;28;20468;-43
2022/05/20 10:14:43;;;;;;;1.80;1.70;;;30.00;77.80;;;;;;4992441;28;20454;-43
2022/05/20 10:17:51;;;;;;;2.47;2.07;;;29.90;77.50;;;;;;4974415;28;20675;-43
2022/05/20 10:20:55;;;;;;;4.33;2.37;;;29.90;77.90;;;;;;4972366;28;20456;-44
2022/05/20 10:23:31;;;;;;;2.57;2.37;;;29.90;78.20;;;;;;4975934;28;20709;-50
2022/05/20 10:26:17;;;;;;;2.10;1.90;;;30.10;78.90;;;;;;4976681;28;20544;-44
2022/05/20 10:34:35;;;;;;;3.23;1.87;;;30.20;78.70;;;;;;4974830;28;20890;-44
2022/05/20 10:37:12;;;;;;;4.07;3.77;;;30.00;78.50;;;;;;4974706;28;20799;-44
2022/05/20 10:39:45;;;;;;;1.90;1.80;;;30.00;78.30;;;;;;4974545;28;20444;-43
2022/05/20 10:42:36;;;;;;;2.10;1.93;;;29.60;78.80;;;;;;4974175;28;20773;-44
2022/05/20 10:48:36;;;;;;;2.80;2.07;;;29.70;79.70;;;;;;4975737;28;20567;-43
2022/05/20 10:51:04;;;;;;;2.03;1.70;;;30.00;80.70;;;;;;4975733;28;20446;-47
2022/05/20 10:53:54;;;;;;;2.90;1.70;;;30.10;80.00;;;;;;4975451;28;20472;-45
2022/05/20 10:56:32;;;;;;;3.67;2.47;;;29.70;79.60;;;;;;4975385;28;20444;-45
2022/05/20 10:59:15;;;;;;;2.67;1.80;;;29.60;78.90;;;;;;4975187;28;20914;-44
2022/05/20 11:01:48;;;;;;;3.30;2.03;;;29.40;77.30;;;;;;4975000;28;20473;-43
2022/05/20 11:05:14;;;;;;;1.80;1.70;;;29.40;78.00;;;;;;4975526;28;20455;-45
2022/05/20 11:08:02;;;;;;;4.27;2.23;;;29.50;78.40;;;;;;4925972;28;20493;-46
2022/05/20 11:11:04;;;;;;;2.63;1.90;;;29.60;78.60;;;;;;4979043;28;20643;-44
2022/05/20 11:13:45;;;;;;;1.80;1.70;;;29.60;78.10;;;;;;4978745;28;20442;-45
2022/05/20 11:16:37;;;;;;;2.03;1.80;;;29.40;78.80;;;;;;4978320;28;20491;-46
2022/05/20 11:19:39;;;;;;;5.10;1.83;;;29.30;80.00;;;;;;4978589;28;20444;-47
2022/05/20 11:22:33;;;;;;;2.50;2.03;;;29.50;79.30;;;;;;4978622;28;20555;-44
2022/05/20 11:25:18;;;;;;;7.40;3.93;;;29.40;79.00;;;;;;4978344;28;20643;-43
2022/05/20 11:28:08;;;;;;;2.60;2.10;;;29.20;80.20;;;;;;4978902;28;20875;-46
2022/05/20 11:30:44;;;;;;;15.80;2.20;;;29.40;80.70;;;;;;4978431;28;20436;-47
2022/05/20 11:33:36;;;;;;;2.17;2.07;;;29.60;80.50;;;;;;4979018;28;20440;-46
2022/05/20 11:36:22;;;;;;;4.80;1.83;;;29.50;81.10;;;;;;4978977;28;20432;-44
2022/05/20 11:39:27;;;;;;;2.63;1.77;;;29.80;80.80;;;;;;4979137;28;20436;-46
2022/05/20 11:42:04;;;;;;;2.90;2.60;;;29.90;80.40;;;;;;4978724;28;20845;-45
2022/05/20 11:44:52;;;;;;;2.53;1.50;;;30.10;79.10;;;;;;4978856;28;20483;-44
2022/05/20 11:47:32;;;;;;;20.67;2.60;;;30.30;78.90;;;;;;4978216;28;20507;-44
2022/05/20 11:50:19;;;;;;;2.53;2.27;;;30.10;78.80;;;;;;4978604;28;20440;-50
2022/05/20 11:53:13;;;;;;;2.60;2.40;;;29.90;78.50;;;;;;4990635;28;20463;-45
2022/05/20 11:56:00;;;;;;;2.27;2.07;;;29.70;78.10;;;;;;4970930;28;20447;-45
2022/05/20 11:59:15;;;;;;;1.93;1.83;;;29.50;79.00;;;;;;4990630;28;20503;-44
2022/05/20 12:01:45;;;;;;;1.90;1.70;;;29.50;79.20;;;;;;4979410;28;20536;-46
2022/05/20 12:04:14;;;;;;;1.70;1.60;;;29.50;79.00;;;;;;4991231;28;20833;-45
2022/05/20 12:06:56;;;;;;;1.70;1.60;;;29.60;78.80;;;;;;4992164;28;20483;-46
2022/05/20 12:09:45;;;;;;;2.47;1.77;;;29.50;79.30;;;;;;4995572;28;20460;-44
2022/05/20 12:13:06;;;;;;;1.73;1.63;;;29.50;79.40;;;;;;4977967;28;20843;-45
2022/05/20 12:16:13;;;;;;;12.33;2.13;;;29.50;79.60;;;;;;4970058;28;20854;-45
2022/05/20 12:24:42;;;;;;;1.97;1.77;;;29.00;80.90;;;;;;4977751;28;20444;-44
2022/05/20 12:27:24;;;;;;;2.33;1.83;;;29.00;80.90;;;;;;4978480;28;20667;-45
2022/05/20 12:30:00;;;;;;;2.17;2.07;;;29.30;81.40;;;;;;4977295;28;20436;-43
2022/05/20 12:32:41;;;;;;;1.70;1.60;;;29.20;81.20;;;;;;4977757;28;20487;-45
2022/05/20 12:35:20;;;;;;;2.30;1.43;;;29.30;80.80;;;;;;4977729;28;20696;-43
2022/05/20 12:37:47;;;;;;;1.77;1.67;;;29.20;81.90;;;;;;4960604;28;20531;-45
2022/05/20 12:40:26;;;;;;;2.20;1.80;;;29.20;81.70;;;;;;4977636;28;20816;-44
2022/05/20 12:43:13;;;;;;;2.20;1.97;;;29.10;82.60;;;;;;4978015;28;20554;-44
2022/05/20 12:45:52;;;;;;;1.60;1.50;;;29.20;81.90;;;;;;4977572;28;20783;-45
2022/05/20 12:48:29;;;;;;;1.87;1.67;;;29.00;82.30;;;;;;4978597;28;20472;-44
2022/05/20 12:51:06;;;;;;;1.70;1.60;;;28.90;83.00;;;;;;4977603;28;20519;-47
2022/05/20 12:53:36;;;;;;;5.60;2.80;;;29.10;82.30;;;;;;4977883;28;20436;-44
2022/05/20 12:56:04;;;;;;;4.57;2.90;;;29.30;82.20;;;;;;4977584;28;20503;-44
2022/05/20 12:58:34;;;;;;;3.13;2.00;;;29.70;82.10;;;;;;4977656;28;20516;-44
2022/05/20 13:01:05;;;;;;;4.17;2.07;;;29.80;80.20;;;;;;4976962;28;20520;-47
2022/05/20 13:03:40;;;;;;;2.03;1.77;;;29.60;80.50;;;;;;4977670;28;20463;-48
2022/05/20 13:06:13;;;;;;;2.27;2.17;;;29.50;80.70;;;;;;4977274;28;20439;-45
2022/05/20 13:08:49;;;;;;;2.17;1.90;;;29.40;81.60;;;;;;4977454;28;20700;-46
2022/05/20 13:11:19;;;;;;;2.43;2.23;;;29.60;81.50;;;;;;4976786;28;20888;-44
2022/05/20 13:13:51;;;;;;;3.37;2.00;;;29.50;81.40;;;;;;4988722;28;20435;-44
2022/05/20 13:16:21;;;;;;;3.30;2.33;;;29.50;82.40;;;;;;5014489;28;20435;-45
2022/05/20 13:19:01;;;;;;;3.00;2.80;;;29.50;81.80;;;;;;4985222;28;20825;-44
2022/05/20 13:21:42;;;;;;;1.93;1.30;;;29.30;82.40;;;;;;4997035;28;20469;-43
2022/05/20 13:24:19;;;;;;;2.37;2.13;;;29.10;83.60;;;;;;4984271;28;20470;-47
2022/05/20 13:26:46;;;;;;;1.90;1.60;;;29.00;83.20;;;;;;4985840;28;20498;-43
2022/05/20 13:29:18;;;;;;;3.17;2.43;;;28.90;84.10;;;;;;4981806;28;20447;-44
2022/05/20 13:31:45;;;;;;;1.80;1.70;;;28.70;85.00;;;;;;4979382;28;20480;-44
2022/05/20 13:34:14;;;;;;;1.70;1.60;;;28.50;85.60;;;;;;4981725;28;20444;-44
2022/05/20 13:36:51;;;;;;;1.97;1.83;;;28.50;85.30;;;;;;4982548;28;20457;-44
2022/05/20 13:39:22;;;;;;;3.47;2.80;;;28.50;85.90;;;;;;4985831;28;20519;-46
2022/05/20 13:41:50;;;;;;;1.90;1.80;;;28.70;86.50;;;;;;4976922;28;20460;-43
2022/05/20 13:44:23;;;;;;;3.37;3.10;;;28.60;85.70;;;;;;4978529;28;20451;-44
2022/05/20 13:49:46;;;;;;;2.17;1.97;;;28.60;87.20;;;;;;4979711;28;20436;-47
2022/05/20 13:52:15;;;;;;;4.53;1.80;;;28.60;86.80;;;;;;4980773;28;20692;-47
2022/05/20 13:54:43;;;;;;;2.50;2.27;;;28.70;86.90;;;;;;4981709;28;20439;-44
2022/05/20 13:57:20;;;;;;;1.77;1.67;;;28.70;86.90;;;;;;4980518;28;20445;-45
2022/05/20 13:59:52;;;;;;;5.30;1.93;;;28.70;87.60;;;;;;4980404;28;20444;-44
2022/05/20 14:02:40;;;;;;;3.00;1.80;;;28.80;87.70;;;;;;4979659;28;20498;-47